sensor_id;sensor_type;location;lat;lon;timestamp;pressure;altitude;pressure_sealevel;temperature;humidity
69455;BME280;56660;51.986;5.930;2022-09-16T00:01:52;101051.84;;;14.39;68.90
69455;BME280;56660;51.986;5.930;2022-09-16T00:04:18;101064.13;;;14.41;68.96
69455;BME280;56660;51.986;5.930;2022-09-16T00:06:43;101057.44;;;14.45;69.27
69455;BME280;56660;51.986;5.930;2022-09-16T00:09:10;101058.78;;;14.50;69.33
69455;BME280;56660;51.986;5.930;2022-09-16T00:11:35;101064.34;;;14.56;69.38
69455;BME280;56660;51.986;5.930;2022-09-16T00:14:01;101063.19;;;14.59;69.25
69455;BME280;56660;51.986;5.930;2022-09-16T00:16:27;101066.53;;;14.61;69.38
69455;BME280;56660;51.986;5.930;2022-09-16T00:18:55;101057.97;;;14.65;69.26
69455;BME280;56660;51.986;5.930;2022-09-16T00:21:22;101049.41;;;14.70;69.28
69455;BME280;56660;51.986;5.930;2022-09-16T00:23:48;101050.25;;;14.70;68.97
69455;BME280;56660;51.986;5.930;2022-09-16T00:26:14;101059.66;;;14.74;69.15
69455;BME280;56660;51.986;5.930;2022-09-16T00:28:40;101050.75;;;14.74;69.20
69455;BME280;56660;51.986;5.930;2022-09-16T00:31:05;101049.75;;;14.75;68.90
69455;BME280;56660;51.986;5.930;2022-09-16T00:33:31;101053.09;;;14.77;69.16
69455;BME280;56660;51.986;5.930;2022-09-16T00:36:04;101063.69;;;14.78;68.50
69455;BME280;56660;51.986;5.930;2022-09-16T00:38:32;101066.22;;;14.80;68.84
69455;BME280;56660;51.986;5.930;2022-09-16T00:40:57;101069.94;;;14.79;68.92
69455;BME280;56660;51.986;5.930;2022-09-16T00:43:22;101066.41;;;14.78;69.02
69455;BME280;56660;51.986;5.930;2022-09-16T00:45:48;101057.97;;;14.82;68.87
69455;BME280;56660;51.986;5.930;2022-09-16T00:48:21;101053.44;;;14.82;68.86
69455;BME280;56660;51.986;5.930;2022-09-16T00:50:50;101056.13;;;14.82;68.88
69455;BME280;56660;51.986;5.930;2022-09-16T00:53:21;101055.97;;;14.84;69.11
69455;BME280;56660;51.986;5.930;2022-09-16T00:55:49;101053.59;;;14.80;69.31
69455;BME280;56660;51.986;5.930;2022-09-16T00:58:18;101059.84;;;14.81;69.25
69455;BME280;56660;51.986;5.930;2022-09-16T01:00:51;101052.09;;;14.78;69.31
69455;BME280;56660;51.986;5.930;2022-09-16T01:03:17;101053.28;;;14.75;69.72
69455;BME280;56660;51.986;5.930;2022-09-16T01:05:44;101049.41;;;14.78;69.72
69455;BME280;56660;51.986;5.930;2022-09-16T01:08:13;101047.56;;;14.78;69.92
69455;BME280;56660;51.986;5.930;2022-09-16T01:10:40;101039.66;;;14.77;69.69
69455;BME280;56660;51.986;5.930;2022-09-16T01:13:07;101042.16;;;14.78;69.95
69455;BME280;56660;51.986;5.930;2022-09-16T01:15:36;101030.72;;;14.76;69.71
69455;BME280;56660;51.986;5.930;2022-09-16T01:18:12;101032.59;;;14.76;69.82
69455;BME280;56660;51.986;5.930;2022-09-16T01:29:34;101044.69;;;14.72;70.57
69455;BME280;56660;51.986;5.930;2022-09-16T01:32:17;101039.31;;;14.72;70.39
69455;BME280;56660;51.986;5.930;2022-09-16T01:34:52;101042.16;;;14.70;71.09
69455;BME280;56660;51.986;5.930;2022-09-16T01:37:28;101041.50;;;14.68;70.86
69455;BME280;56660;51.986;5.930;2022-09-16T01:40:02;101040.66;;;14.68;71.02
69455;BME280;56660;51.986;5.930;2022-09-16T01:42:37;101033.59;;;14.67;71.08
69455;BME280;56660;51.986;5.930;2022-09-16T01:45:12;101033.59;;;14.67;71.46
69455;BME280;56660;51.986;5.930;2022-09-16T01:47:47;101036.28;;;14.67;71.74
69455;BME280;56660;51.986;5.930;2022-09-16T01:50:18;101045.19;;;14.67;72.05
69455;BME280;56660;51.986;5.930;2022-09-16T01:52:55;101029.22;;;14.66;71.94
69455;BME280;56660;51.986;5.930;2022-09-16T01:55:31;101032.56;;;14.68;72.02
69455;BME280;56660;51.986;5.930;2022-09-16T01:58:02;101038.63;;;14.70;71.94
69455;BME280;56660;51.986;5.930;2022-09-16T02:00:37;101035.25;;;14.68;72.08
69455;BME280;56660;51.986;5.930;2022-09-16T02:03:14;101029.03;;;14.67;71.94
69455;BME280;56660;51.986;5.930;2022-09-16T02:05:43;101028.19;;;14.67;71.91
69455;BME280;56660;51.986;5.930;2022-09-16T02:08:18;101034.59;;;14.66;71.85
69455;BME280;56660;51.986;5.930;2022-09-16T02:10:48;101040.13;;;14.64;71.80
69455;BME280;56660;51.986;5.930;2022-09-16T02:13:18;101026.34;;;14.59;71.84
69455;BME280;56660;51.986;5.930;2022-09-16T02:15:48;101040.28;;;14.55;72.06
69455;BME280;56660;51.986;5.930;2022-09-16T02:18:20;101034.91;;;14.55;72.14
69455;BME280;56660;51.986;5.930;2022-09-16T02:20:51;101032.91;;;14.57;72.29
69455;BME280;56660;51.986;5.930;2022-09-16T02:23:22;101038.13;;;14.58;72.03
69455;BME280;56660;51.986;5.930;2022-09-16T02:25:52;101036.25;;;14.59;72.35
69455;BME280;56660;51.986;5.930;2022-09-16T02:28:20;101033.41;;;14.60;72.47
69455;BME280;56660;51.986;5.930;2022-09-16T02:30:51;101037.94;;;14.60;72.72
69455;BME280;56660;51.986;5.930;2022-09-16T02:33:22;101042.31;;;14.61;72.61
69455;BME280;56660;51.986;5.930;2022-09-16T02:35:54;101040.81;;;14.58;72.50
69455;BME280;56660;51.986;5.930;2022-09-16T02:38:21;101035.94;;;14.54;72.70
69455;BME280;56660;51.986;5.930;2022-09-16T02:40:55;101030.38;;;14.47;72.54
69455;BME280;56660;51.986;5.930;2022-09-16T02:43:23;101047.84;;;14.43;72.58
69455;BME280;56660;51.986;5.930;2022-09-16T02:45:51;101036.88;;;14.36;72.54
69455;BME280;56660;51.986;5.930;2022-09-16T02:48:26;101042.06;;;14.30;72.25
69455;BME280;56660;51.986;5.930;2022-09-16T02:50:59;101040.56;;;14.27;72.70
69455;BME280;56660;51.986;5.930;2022-09-16T02:53:35;101037.50;;;14.22;72.71
69455;BME280;56660;51.986;5.930;2022-09-16T02:56:09;101043.06;;;14.21;73.01
69455;BME280;56660;51.986;5.930;2022-09-16T02:58:42;101025.41;;;14.18;73.13
69455;BME280;56660;51.986;5.930;2022-09-16T03:01:07;101034.31;;;14.19;73.28
69455;BME280;56660;51.986;5.930;2022-09-16T03:03:38;101034.81;;;14.22;73.20
69455;BME280;56660;51.986;5.930;2022-09-16T03:06:17;101031.97;;;14.24;73.49
69455;BME280;56660;51.986;5.930;2022-09-16T03:08:44;101037.69;;;14.29;73.19
69455;BME280;56660;51.986;5.930;2022-09-16T03:11:17;101033.16;;;14.29;73.34
69455;BME280;56660;51.986;5.930;2022-09-16T03:13:52;101026.78;;;14.30;73.23
69455;BME280;56660;51.986;5.930;2022-09-16T03:16:26;101027.63;;;14.31;72.85
69455;BME280;56660;51.986;5.930;2022-09-16T03:19:06;101030.47;;;14.29;72.96
69455;BME280;56660;51.986;5.930;2022-09-16T03:21:43;101033.16;;;14.29;73.09
69455;BME280;56660;51.986;5.930;2022-09-16T03:24:22;101029.63;;;14.29;73.10
69455;BME280;56660;51.986;5.930;2022-09-16T03:26:57;101029.47;;;14.30;72.98
69455;BME280;56660;51.986;5.930;2022-09-16T03:29:30;101025.94;;;14.30;72.90
69455;BME280;56660;51.986;5.930;2022-09-16T03:32:01;101029.47;;;14.30;73.12
69455;BME280;56660;51.986;5.930;2022-09-16T03:34:38;101038.38;;;14.31;72.73
69455;BME280;56660;51.986;5.930;2022-09-16T03:37:08;101037.53;;;14.30;72.75
69455;BME280;56660;51.986;5.930;2022-09-16T03:39:36;101039.53;;;14.28;72.56
69455;BME280;56660;51.986;5.930;2022-09-16T03:42:03;101034.34;;;14.27;72.52
69455;BME280;56660;51.986;5.930;2022-09-16T03:44:31;101038.69;;;14.28;72.32
69455;BME280;56660;51.986;5.930;2022-09-16T03:46:58;101042.22;;;14.28;72.63
69455;BME280;56660;51.986;5.930;2022-09-16T03:49:23;101038.38;;;14.31;72.31
69455;BME280;56660;51.986;5.930;2022-09-16T03:51:50;101036.69;;;14.30;72.59
69455;BME280;56660;51.986;5.930;2022-09-16T03:54:16;101030.47;;;14.29;72.63
69455;BME280;56660;51.986;5.930;2022-09-16T03:56:41;101030.47;;;14.29;72.88
69455;BME280;56660;51.986;5.930;2022-09-16T03:59:06;101020.88;;;14.27;72.90
69455;BME280;56660;51.986;5.930;2022-09-16T04:01:33;101015.66;;;14.25;72.94
69455;BME280;56660;51.986;5.930;2022-09-16T04:03:59;101009.44;;;14.25;72.91
69455;BME280;56660;51.986;5.930;2022-09-16T04:06:24;101014.16;;;14.23;72.94
69455;BME280;56660;51.986;5.930;2022-09-16T04:08:51;101017.69;;;14.23;73.23
69455;BME280;56660;51.986;5.930;2022-09-16T04:11:17;101020.22;;;14.25;73.29
69455;BME280;56660;51.986;5.930;2022-09-16T04:13:42;101013.16;;;14.24;73.54
69455;BME280;56660;51.986;5.930;2022-09-16T04:16:08;101008.44;;;14.26;73.56
69455;BME280;56660;51.986;5.930;2022-09-16T04:18:33;101011.28;;;14.24;73.59
69455;BME280;56660;51.986;5.930;2022-09-16T04:20:59;101010.47;;;14.24;73.63
69455;BME280;56660;51.986;5.930;2022-09-16T04:23:26;101000.53;;;14.24;73.81
69455;BME280;56660;51.986;5.930;2022-09-16T04:25:54;101010.63;;;14.22;73.36
69455;BME280;56660;51.986;5.930;2022-09-16T04:28:24;101012.31;;;14.23;73.94
69455;BME280;56660;51.986;5.930;2022-09-16T04:30:50;101022.06;;;14.24;73.99
69455;BME280;56660;51.986;5.930;2022-09-16T04:33:16;101011.63;;;14.21;73.90
69455;BME280;56660;51.986;5.930;2022-09-16T04:35:43;101011.78;;;14.20;73.86
69455;BME280;56660;51.986;5.930;2022-09-16T04:38:08;101010.09;;;14.19;74.03
69455;BME280;56660;51.986;5.930;2022-09-16T04:40:34;101011.28;;;14.16;73.98
69455;BME280;56660;51.986;5.930;2022-09-16T04:43:00;101014.81;;;14.16;74.13
69455;BME280;56660;51.986;5.930;2022-09-16T04:45:26;101019.69;;;14.21;74.12
69455;BME280;56660;51.986;5.930;2022-09-16T04:47:54;101015.31;;;14.20;73.76
69455;BME280;56660;51.986;5.930;2022-09-16T04:50:20;101025.22;;;14.20;73.69
69455;BME280;56660;51.986;5.930;2022-09-16T04:52:48;101015.66;;;14.17;73.31
69455;BME280;56660;51.986;5.930;2022-09-16T04:55:14;101006.06;;;14.14;73.19
69455;BME280;56660;51.986;5.930;2022-09-16T04:57:40;101020.00;;;14.10;73.27
69455;BME280;56660;51.986;5.930;2022-09-16T05:00:08;101012.94;;;14.09;73.21
69455;BME280;56660;51.986;5.930;2022-09-16T05:02:34;101007.41;;;14.10;73.49
69455;BME280;56660;51.986;5.930;2022-09-16T05:04:59;101019.50;;;14.06;73.47
69455;BME280;56660;51.986;5.930;2022-09-16T05:07:26;101010.56;;;14.06;73.23
69455;BME280;56660;51.986;5.930;2022-09-16T05:09:52;101012.59;;;14.04;73.46
69455;BME280;56660;51.986;5.930;2022-09-16T05:12:19;101011.91;;;14.02;73.39
69455;BME280;56660;51.986;5.930;2022-09-16T05:14:44;101010.38;;;13.99;73.60
69455;BME280;56660;51.986;5.930;2022-09-16T05:17:11;101015.94;;;13.98;73.53
69455;BME280;56660;51.986;5.930;2022-09-16T05:19:40;101015.41;;;13.94;73.66
69455;BME280;56660;51.986;5.930;2022-09-16T05:22:06;101016.75;;;13.90;73.49
69455;BME280;56660;51.986;5.930;2022-09-16T05:24:35;101019.91;;;13.86;73.38
69455;BME280;56660;51.986;5.930;2022-09-16T05:27:02;101017.56;;;13.82;73.77
69455;BME280;56660;51.986;5.930;2022-09-16T05:29:28;101027.78;;;13.79;73.63
69455;BME280;56660;51.986;5.930;2022-09-16T05:31:53;101027.25;;;13.75;73.72
69455;BME280;56660;51.986;5.930;2022-09-16T05:34:20;101024.75;;;13.74;73.69
69455;BME280;56660;51.986;5.930;2022-09-16T05:36:46;101028.59;;;13.71;73.69
69455;BME280;56660;51.986;5.930;2022-09-16T05:39:14;101034.13;;;13.70;73.87
69455;BME280;56660;51.986;5.930;2022-09-16T05:41:40;101034.44;;;13.67;73.87
69455;BME280;56660;51.986;5.930;2022-09-16T05:44:06;101034.78;;;13.64;73.87
69455;BME280;56660;51.986;5.930;2022-09-16T05:46:32;101035.78;;;13.63;73.62
69455;BME280;56660;51.986;5.930;2022-09-16T05:48:58;101030.88;;;13.58;73.55
69455;BME280;56660;51.986;5.930;2022-09-16T05:51:25;101031.19;;;13.55;73.63
69455;BME280;56660;51.986;5.930;2022-09-16T05:53:51;101045.63;;;13.54;73.81
69455;BME280;56660;51.986;5.930;2022-09-16T05:56:19;101028.84;;;13.52;73.97
69455;BME280;56660;51.986;5.930;2022-09-16T05:58:45;101031.19;;;13.55;73.99
69455;BME280;56660;51.986;5.930;2022-09-16T06:01:12;101034.25;;;13.60;73.90
69455;BME280;56660;51.986;5.930;2022-09-16T06:03:41;101034.28;;;13.68;73.52
69455;BME280;56660;51.986;5.930;2022-09-16T06:06:10;101032.81;;;13.74;73.70
69455;BME280;56660;51.986;5.930;2022-09-16T06:08:39;101037.38;;;13.81;73.10
69455;BME280;56660;51.986;5.930;2022-09-16T06:11:06;101046.31;;;13.90;73.17
69455;BME280;56660;51.986;5.930;2022-09-16T06:13:33;101046.34;;;13.98;73.19
69455;BME280;56660;51.986;5.930;2022-09-16T06:16:00;101055.44;;;14.05;73.22
69455;BME280;56660;51.986;5.930;2022-09-16T06:18:28;101045.72;;;14.12;73.14
69455;BME280;56660;51.986;5.930;2022-09-16T06:20:55;101047.59;;;14.20;73.18
69455;BME280;56660;51.986;5.930;2022-09-16T06:23:21;101052.31;;;14.26;72.69
69455;BME280;56660;51.986;5.930;2022-09-16T06:25:59;101053.34;;;14.33;72.55
69455;BME280;56660;51.986;5.930;2022-09-16T06:28:25;101049.69;;;14.42;72.56
69455;BME280;56660;51.986;5.930;2022-09-16T06:30:59;101051.22;;;14.45;72.33
69455;BME280;56660;51.986;5.930;2022-09-16T06:33:30;101059.63;;;14.50;72.25
69455;BME280;56660;51.986;5.930;2022-09-16T06:35:56;101058.13;;;14.56;72.17
69455;BME280;56660;51.986;5.930;2022-09-16T06:38:21;101059.16;;;14.63;72.20
69455;BME280;56660;51.986;5.930;2022-09-16T06:40:47;101053.09;;;14.69;71.98
69455;BME280;56660;51.986;5.930;2022-09-16T06:43:14;101053.94;;;14.77;72.36
69455;BME280;56660;51.986;5.930;2022-09-16T06:45:40;101053.94;;;14.86;72.02
69455;BME280;56660;51.986;5.930;2022-09-16T06:48:07;101053.94;;;14.94;72.22
69455;BME280;56660;51.986;5.930;2022-09-16T06:50:33;101056.63;;;15.02;71.78
69455;BME280;56660;51.986;5.930;2022-09-16T06:52:58;101053.09;;;15.09;71.57
69455;BME280;56660;51.986;5.930;2022-09-16T06:55:26;101047.03;;;15.16;71.12
69455;BME280;56660;51.986;5.930;2022-09-16T06:57:51;101056.97;;;15.23;71.19
69455;BME280;56660;51.986;5.930;2022-09-16T07:00:21;101052.91;;;15.27;70.96
69455;BME280;56660;51.986;5.930;2022-09-16T07:02:47;101045.34;;;15.31;70.73
69455;BME280;56660;51.986;5.930;2022-09-16T07:05:13;101053.06;;;15.34;71.00
69455;BME280;56660;51.986;5.930;2022-09-16T07:07:38;101048.00;;;15.39;70.69
69455;BME280;56660;51.986;5.930;2022-09-16T07:10:04;101048.00;;;15.47;70.33
69455;BME280;56660;51.986;5.930;2022-09-16T07:12:35;101045.28;;;15.55;70.24
69455;BME280;56660;51.986;5.930;2022-09-16T07:15:01;101051.72;;;15.62;69.97
69455;BME280;56660;51.986;5.930;2022-09-16T07:17:55;101050.69;;;15.71;70.29
69455;BME280;56660;51.986;5.930;2022-09-16T07:20:21;101043.91;;;15.84;69.85
69455;BME280;56660;51.986;5.930;2022-09-16T07:22:46;101041.00;;;15.93;69.56
69455;BME280;56660;51.986;5.930;2022-09-16T07:25:13;101051.75;;;16.01;69.45
69455;BME280;56660;51.986;5.930;2022-09-16T07:27:42;101052.38;;;16.12;68.94
69455;BME280;56660;51.986;5.930;2022-09-16T07:30:10;101043.41;;;16.19;68.56
69455;BME280;56660;51.986;5.930;2022-09-16T07:32:36;101048.44;;;16.22;68.11
69455;BME280;56660;51.986;5.930;2022-09-16T07:37:46;101047.59;;;16.22;67.72
69455;BME280;56660;51.986;5.930;2022-09-16T07:40:12;101052.50;;;16.18;67.23
69455;BME280;56660;51.986;5.930;2022-09-16T07:42:41;101055.56;;;16.15;67.44
69455;BME280;56660;51.986;5.930;2022-09-16T07:45:08;101054.72;;;16.15;67.38
69455;BME280;56660;51.986;5.930;2022-09-16T07:47:36;101064.63;;;16.22;67.03
69455;BME280;56660;51.986;5.930;2022-09-16T07:50:03;101064.94;;;16.27;66.67
69455;BME280;56660;51.986;5.930;2022-09-16T07:52:34;101058.00;;;16.33;66.15
69455;BME280;56660;51.986;5.930;2022-09-16T07:54:59;101049.53;;;16.36;66.21
69455;BME280;56660;51.986;5.930;2022-09-16T07:57:28;101052.91;;;16.38;65.64
69455;BME280;56660;51.986;5.930;2022-09-16T07:59:56;101065.38;;;16.39;65.50
69455;BME280;56660;51.986;5.930;2022-09-16T08:02:28;101058.25;;;16.46;65.61
69455;BME280;56660;51.986;5.930;2022-09-16T08:04:54;101060.72;;;16.56;65.85
69455;BME280;56660;51.986;5.930;2022-09-16T08:07:19;101068.94;;;16.62;63.80
69455;BME280;56660;51.986;5.930;2022-09-16T08:13:08;101061.84;;;16.61;63.67
69455;BME280;56660;51.986;5.930;2022-09-16T08:15:34;101066.78;;;16.58;63.27
69455;BME280;56660;51.986;5.930;2022-09-16T08:18:09;101068.63;;;16.57;63.71
69455;BME280;56660;51.986;5.930;2022-09-16T08:23:19;101081.03;;;16.75;62.27
69455;BME280;56660;51.986;5.930;2022-09-16T08:25:44;101074.06;;;16.80;61.89
69455;BME280;56660;51.986;5.930;2022-09-16T08:28:15;101071.69;;;16.85;61.28
69455;BME280;56660;51.986;5.930;2022-09-16T08:30:42;101083.78;;;16.89;62.43
69455;BME280;56660;51.986;5.930;2022-09-16T08:33:28;101079.53;;;16.95;62.03
69455;BME280;56660;51.986;5.930;2022-09-16T08:36:15;101083.38;;;17.00;62.92
69455;BME280;56660;51.986;5.930;2022-09-16T08:38:45;101078.75;;;17.09;62.08
69455;BME280;56660;51.986;5.930;2022-09-16T08:41:26;101082.94;;;17.12;61.57
69455;BME280;56660;51.986;5.930;2022-09-16T08:44:17;101086.78;;;17.17;61.09
69455;BME280;56660;51.986;5.930;2022-09-16T08:46:53;101086.53;;;17.27;61.06
69455;BME280;56660;51.986;5.930;2022-09-16T08:49:53;101095.22;;;17.37;61.61
69455;BME280;56660;51.986;5.930;2022-09-16T08:52:40;101090.00;;;17.50;60.52
69455;BME280;56660;51.986;5.930;2022-09-16T08:55:17;101090.03;;;17.65;60.32
69455;BME280;56660;51.986;5.930;2022-09-16T08:58:00;101081.94;;;17.80;59.43
69455;BME280;56660;51.986;5.930;2022-09-16T09:03:29;101075.97;;;17.84;59.40
69455;BME280;56660;51.986;5.930;2022-09-16T09:06:13;101082.78;;;17.80;59.46
69455;BME280;56660;51.986;5.930;2022-09-16T09:09:20;101095.19;;;17.75;58.33
69455;BME280;56660;51.986;5.930;2022-09-16T09:12:09;101088.53;;;17.62;57.51
69455;BME280;56660;51.986;5.930;2022-09-16T09:14:40;101086.28;;;17.51;58.94
69455;BME280;56660;51.986;5.930;2022-09-16T09:20:29;101078.94;;;17.60;57.91
69455;BME280;56660;51.986;5.930;2022-09-16T09:26:12;101084.19;;;17.76;55.97
69455;BME280;56660;51.986;5.930;2022-09-16T09:31:40;101077.75;;;17.77;56.04
69455;BME280;56660;51.986;5.930;2022-09-16T09:34:41;101090.72;;;17.82;55.69
69455;BME280;56660;51.986;5.930;2022-09-16T09:40:38;101080.28;;;17.79;54.28
69455;BME280;56660;51.986;5.930;2022-09-16T09:43:17;101082.97;;;17.79;53.84
69455;BME280;56660;51.986;5.930;2022-09-16T09:45:52;101088.19;;;17.80;52.59
69455;BME280;56660;51.986;5.930;2022-09-16T09:48:36;101084.09;;;17.84;53.60
69455;BME280;56660;51.986;5.930;2022-09-16T09:51:06;101080.19;;;17.87;53.75
69455;BME280;56660;51.986;5.930;2022-09-16T09:54:00;101077.19;;;17.96;53.48
69455;BME280;56660;51.986;5.930;2022-09-16T09:56:43;101087.44;;;18.01;52.66
69455;BME280;56660;51.986;5.930;2022-09-16T09:59:15;101084.44;;;18.11;52.62
69455;BME280;56660;51.986;5.930;2022-09-16T10:01:52;101071.66;;;18.19;54.07
69455;BME280;56660;51.986;5.930;2022-09-16T10:04:19;101064.75;;;18.31;53.51
69455;BME280;56660;51.986;5.930;2022-09-16T10:06:45;101073.59;;;18.40;51.53
69455;BME280;56660;51.986;5.930;2022-09-16T10:09:22;101077.41;;;18.46;52.42
69455;BME280;56660;51.986;5.930;2022-09-16T10:11:52;101064.72;;;18.46;52.32
69455;BME280;56660;51.986;5.930;2022-09-16T10:14:39;101067.50;;;18.53;54.72
69455;BME280;56660;51.986;5.930;2022-09-16T10:17:13;101076.06;;;18.56;52.51
69455;BME280;56660;51.986;5.930;2022-09-16T10:19:48;101072.91;;;18.53;52.12
69455;BME280;56660;51.986;5.930;2022-09-16T10:22:18;101079.34;;;18.52;52.80
69455;BME280;56660;51.986;5.930;2022-09-16T10:27:26;101070.97;;;18.47;51.31
69455;BME280;56660;51.986;5.930;2022-09-16T10:30:10;101061.44;;;18.51;51.09
69455;BME280;56660;51.986;5.930;2022-09-16T10:32:39;101066.09;;;18.57;51.38
69455;BME280;56660;51.986;5.930;2022-09-16T10:37:58;101074.63;;;18.75;50.49
69455;BME280;56660;51.986;5.930;2022-09-16T10:40:38;101057.16;;;18.78;49.46
69455;BME280;56660;51.986;5.930;2022-09-16T10:43:26;101062.66;;;18.84;50.47
69455;BME280;56660;51.986;5.930;2022-09-16T10:45:58;101071.88;;;18.90;48.75
69455;BME280;56660;51.986;5.930;2022-09-16T10:48:27;101064.06;;;19.02;50.37
69455;BME280;56660;51.986;5.930;2022-09-16T10:50:55;101058.50;;;19.10;48.35
69455;BME280;56660;51.986;5.930;2022-09-16T10:53:26;101072.03;;;19.10;48.06
69455;BME280;56660;51.986;5.930;2022-09-16T10:55:56;101072.88;;;19.10;48.42
69455;BME280;56660;51.986;5.930;2022-09-16T10:58:22;101062.03;;;19.10;48.76
69455;BME280;56660;51.986;5.930;2022-09-16T11:00:54;101062.75;;;19.19;47.75
69455;BME280;56660;51.986;5.930;2022-09-16T11:03:35;101066.25;;;19.41;50.15
69455;BME280;56660;51.986;5.930;2022-09-16T11:06:18;101049.94;;;19.62;47.45
69455;BME280;56660;51.986;5.930;2022-09-16T11:09:04;101055.84;;;19.72;49.22
69455;BME280;56660;51.986;5.930;2022-09-16T11:11:41;101058.56;;;19.72;48.06
69455;BME280;56660;51.986;5.930;2022-09-16T11:14:21;101063.94;;;19.66;49.24
69455;BME280;56660;51.986;5.930;2022-09-16T11:17:05;101067.28;;;19.68;48.95
69455;BME280;56660;51.986;5.930;2022-09-16T11:19:44;101081.84;;;19.60;48.91
69455;BME280;56660;51.986;5.930;2022-09-16T11:22:22;101096.22;;;19.33;48.58
69455;BME280;56660;51.986;5.930;2022-09-16T11:24:58;101087.34;;;19.17;48.23
69455;BME280;56660;51.986;5.930;2022-09-16T11:27:44;101084.94;;;19.29;50.08
69455;BME280;56660;51.986;5.930;2022-09-16T11:30:16;101087.53;;;19.44;48.83
69455;BME280;56660;51.986;5.930;2022-09-16T11:32:49;101081.41;;;19.56;49.37
69455;BME280;56660;51.986;5.930;2022-09-16T11:38:23;101084.84;;;20.06;48.86
69455;BME280;56660;51.986;5.930;2022-09-16T11:40:55;101093.56;;;20.43;48.83
69455;BME280;56660;51.986;5.930;2022-09-16T11:43:35;101088.41;;;20.61;48.69
69455;BME280;56660;51.986;5.930;2022-09-16T11:46:23;101084.31;;;20.92;47.84
69455;BME280;56660;51.986;5.930;2022-09-16T11:49:04;101074.72;;;21.15;46.21
69455;BME280;56660;51.986;5.930;2022-09-16T11:51:53;101077.66;;;21.54;47.61
69455;BME280;56660;51.986;5.930;2022-09-16T11:54:41;101079.91;;;21.83;44.92
69455;BME280;56660;51.986;5.930;2022-09-16T11:57:23;101069.06;;;21.63;43.02
69455;BME280;56660;51.986;5.930;2022-09-16T11:59:54;101080.38;;;21.21;42.56
69455;BME280;56660;51.986;5.930;2022-09-16T12:02:24;101079.50;;;20.80;43.22
69455;BME280;56660;51.986;5.930;2022-09-16T12:04:57;101094.28;;;20.71;43.10
69455;BME280;56660;51.986;5.930;2022-09-16T12:07:29;101080.56;;;20.93;42.88
69455;BME280;56660;51.986;5.930;2022-09-16T12:10:00;101081.25;;;21.28;41.89
69455;BME280;56660;51.986;5.930;2022-09-16T12:12:31;101068.66;;;21.60;40.59
69455;BME280;56660;51.986;5.930;2022-09-16T12:15:06;101068.19;;;21.82;41.47
69455;BME280;56660;51.986;5.930;2022-09-16T12:17:56;101066.84;;;22.11;39.78
69455;BME280;56660;51.986;5.930;2022-09-16T12:20:30;101054.19;;;22.30;41.42
69455;BME280;56660;51.986;5.930;2022-09-16T12:23:16;101063.06;;;22.57;41.47
69455;BME280;56660;51.986;5.930;2022-09-16T12:25:44;101057.28;;;22.78;39.14
69455;BME280;56660;51.986;5.930;2022-09-16T12:28:28;101055.81;;;22.83;41.59
69455;BME280;56660;51.986;5.930;2022-09-16T12:31:00;101059.38;;;22.76;38.93
69455;BME280;56660;51.986;5.930;2022-09-16T12:33:38;101051.59;;;22.87;42.05
69455;BME280;56660;51.986;5.930;2022-09-16T12:36:14;101048.97;;;23.23;41.30
69455;BME280;56660;51.986;5.930;2022-09-16T12:38:42;101058.28;;;23.40;40.66
69455;BME280;56660;51.986;5.930;2022-09-16T12:41:14;101050.75;;;23.36;39.75
69455;BME280;56660;51.986;5.930;2022-09-16T12:43:58;101054.50;;;23.17;40.57
69455;BME280;56660;51.986;5.930;2022-09-16T12:46:43;101056.81;;;23.13;42.13
69455;BME280;56660;51.986;5.930;2022-09-16T12:49:24;101060.81;;;23.42;42.43
69455;BME280;56660;51.986;5.930;2022-09-16T12:52:17;101063.69;;;23.72;42.13
69455;BME280;56660;51.986;5.930;2022-09-16T12:55:19;101057.00;;;24.04;43.03
69455;BME280;56660;51.986;5.930;2022-09-16T12:58:14;101068.22;;;24.33;42.54
69455;BME280;56660;51.986;5.930;2022-09-16T13:00:53;101063.19;;;24.48;42.07
69455;BME280;56660;51.986;5.930;2022-09-16T13:03:24;101057.88;;;24.53;40.95
69455;BME280;56660;51.986;5.930;2022-09-16T13:05:53;101060.50;;;24.60;42.23
69455;BME280;56660;51.986;5.930;2022-09-16T13:08:22;101068.59;;;24.66;40.40
69455;BME280;56660;51.986;5.930;2022-09-16T13:10:55;101058.75;;;24.65;40.62
69455;BME280;56660;51.986;5.930;2022-09-16T13:13:26;101057.38;;;24.86;40.12
69455;BME280;56660;51.986;5.930;2022-09-16T13:15:57;101062.56;;;25.06;39.37
69455;BME280;56660;51.986;5.930;2022-09-16T13:18:25;101054.34;;;25.06;38.83
69455;BME280;56660;51.986;5.930;2022-09-16T13:21:04;101049.66;;;24.95;39.29
69455;BME280;56660;51.986;5.930;2022-09-16T13:23:39;101050.00;;;24.87;39.97
69455;BME280;56660;51.986;5.930;2022-09-16T13:26:07;101045.16;;;24.59;40.47
69455;BME280;56660;51.986;5.930;2022-09-16T13:28:35;101046.94;;;24.53;39.81
69455;BME280;56660;51.986;5.930;2022-09-16T13:31:14;101042.19;;;24.60;39.69
69455;BME280;56660;51.986;5.930;2022-09-16T13:33:41;101051.19;;;24.49;39.59
69455;BME280;56660;51.986;5.930;2022-09-16T13:38:59;101048.50;;;23.76;39.54
69455;BME280;56660;51.986;5.930;2022-09-16T13:41:27;101046.22;;;23.73;40.95
69455;BME280;56660;51.986;5.930;2022-09-16T13:43:58;101036.22;;;23.85;41.58
69455;BME280;56660;51.986;5.930;2022-09-16T13:46:26;101040.00;;;23.84;40.30
69455;BME280;56660;51.986;5.930;2022-09-16T13:48:56;101035.84;;;23.82;41.36
69455;BME280;56660;51.986;5.930;2022-09-16T13:51:29;101044.50;;;23.79;40.30
69455;BME280;56660;51.986;5.930;2022-09-16T13:53:56;101028.88;;;23.67;40.55
69455;BME280;56660;51.986;5.930;2022-09-16T13:56:35;101028.13;;;23.54;39.54
69455;BME280;56660;51.986;5.930;2022-09-16T13:59:19;101048.41;;;23.15;38.30